sensor_id;sensor_type;location;lat;lon;timestamp;pressure;altitude;pressure_sealevel;temperature;humidity
81299;BME280;70766;53.170;18.160;2023-06-22T00:01:50;101375.05;;;18.62;100.00
81299;BME280;70766;53.170;18.160;2023-06-22T00:04:18;101374.20;;;18.62;100.00
81299;BME280;70766;53.170;18.160;2023-06-22T00:06:46;101372.83;;;18.61;100.00
81299;BME280;70766;53.170;18.160;2023-06-22T00:09:14;101374.40;;;18.60;100.00
81299;BME280;70766;53.170;18.160;2023-06-22T00:11:42;101378.90;;;18.60;100.00
81299;BME280;70766;53.170;18.160;2023-06-22T00:14:11;101386.79;;;18.59;100.00
81299;BME280;70766;53.170;18.160;2023-06-22T00:16:39;101386.24;;;18.58;100.00
81299;BME280;70766;53.170;18.160;2023-06-22T00:19:07;101388.79;;;18.56;100.00
81299;BME280;70766;53.170;18.160;2023-06-22T00:21:35;101392.79;;;18.53;100.00
81299;BME280;70766;53.170;18.160;2023-06-22T00:24:03;101395.37;;;18.50;100.00
81299;BME280;70766;53.170;18.160;2023-06-22T00:26:31;101394.75;;;18.47;100.00
81299;BME280;70766;53.170;18.160;2023-06-22T00:29:00;101394.73;;;18.45;100.00
81299;BME280;70766;53.170;18.160;2023-06-22T00:31:30;101395.00;;;18.44;100.00
81299;BME280;70766;53.170;18.160;2023-06-22T00:33:58;101391.78;;;18.44;100.00
81299;BME280;70766;53.170;18.160;2023-06-22T00:36:26;101394.29;;;18.43;100.00
81299;BME280;70766;53.170;18.160;2023-06-22T00:38:54;101396.77;;;18.41;100.00
81299;BME280;70766;53.170;18.160;2023-06-22T00:41:22;101397.41;;;18.40;100.00
81299;BME280;70766;53.170;18.160;2023-06-22T00:43:50;101401.44;;;18.39;100.00
81299;BME280;70766;53.170;18.160;2023-06-22T00:46:18;101404.20;;;18.37;100.00
81299;BME280;70766;53.170;18.160;2023-06-22T00:48:47;101408.88;;;18.36;100.00
81299;BME280;70766;53.170;18.160;2023-06-22T00:51:15;101409.15;;;18.35;100.00
81299;BME280;70766;53.170;18.160;2023-06-22T00:53:43;101401.13;;;18.37;100.00
81299;BME280;70766;53.170;18.160;2023-06-22T00:56:11;101404.42;;;18.39;100.00
81299;BME280;70766;53.170;18.160;2023-06-22T00:58:40;101403.09;;;18.42;100.00
81299;BME280;70766;53.170;18.160;2023-06-22T01:01:09;101402.98;;;18.43;100.00
81299;BME280;70766;53.170;18.160;2023-06-22T01:03:38;101405.50;;;18.45;100.00
81299;BME280;70766;53.170;18.160;2023-06-22T01:06:10;101403.25;;;18.48;100.00
81299;BME280;70766;53.170;18.160;2023-06-22T01:09:00;101402.44;;;18.50;100.00
81299;BME280;70766;53.170;18.160;2023-06-22T01:11:37;101404.29;;;18.51;100.00
81299;BME280;70766;53.170;18.160;2023-06-22T01:14:14;101398.27;;;18.53;100.00
81299;BME280;70766;53.170;18.160;2023-06-22T01:16:44;101397.46;;;18.53;100.00
81299;BME280;70766;53.170;18.160;2023-06-22T01:21:55;101407.24;;;18.53;100.00
81299;BME280;70766;53.170;18.160;2023-06-22T01:24:30;101404.46;;;18.52;100.00
81299;BME280;70766;53.170;18.160;2023-06-22T01:29:56;101409.87;;;18.54;100.00
81299;BME280;70766;53.170;18.160;2023-06-22T01:32:33;101412.16;;;18.55;100.00
81299;BME280;70766;53.170;18.160;2023-06-22T01:35:05;101409.45;;;18.56;100.00
81299;BME280;70766;53.170;18.160;2023-06-22T01:37:35;101406.47;;;18.58;100.00
81299;BME280;70766;53.170;18.160;2023-06-22T01:40:08;101407.56;;;18.58;100.00
81299;BME280;70766;53.170;18.160;2023-06-22T01:42:37;101406.13;;;18.57;100.00
81299;BME280;70766;53.170;18.160;2023-06-22T01:45:08;101404.15;;;18.53;100.00
81299;BME280;70766;53.170;18.160;2023-06-22T01:47:39;101400.15;;;18.49;100.00
81299;BME280;70766;53.170;18.160;2023-06-22T01:50:08;101398.36;;;18.43;100.00
81299;BME280;70766;53.170;18.160;2023-06-22T01:52:36;101400.95;;;18.36;100.00
81299;BME280;70766;53.170;18.160;2023-06-22T01:55:05;101402.20;;;18.30;100.00
81299;BME280;70766;53.170;18.160;2023-06-22T01:57:36;101402.27;;;18.24;100.00
81299;BME280;70766;53.170;18.160;2023-06-22T02:00:20;101398.30;;;18.18;100.00
81299;BME280;70766;53.170;18.160;2023-06-22T02:02:57;101399.25;;;18.08;100.00
81299;BME280;70766;53.170;18.160;2023-06-22T02:05:33;101403.79;;;18.00;100.00
81299;BME280;70766;53.170;18.160;2023-06-22T02:08:11;101402.52;;;17.91;100.00
81299;BME280;70766;53.170;18.160;2023-06-22T02:10:45;101406.33;;;17.82;100.00
81299;BME280;70766;53.170;18.160;2023-06-22T02:13:15;101403.35;;;17.73;100.00
81299;BME280;70766;53.170;18.160;2023-06-22T02:15:45;101402.13;;;17.64;100.00
81299;BME280;70766;53.170;18.160;2023-06-22T02:18:14;101406.34;;;17.57;100.00
81299;BME280;70766;53.170;18.160;2023-06-22T02:20:42;101411.30;;;17.50;100.00
81299;BME280;70766;53.170;18.160;2023-06-22T02:23:10;101413.44;;;17.46;100.00
81299;BME280;70766;53.170;18.160;2023-06-22T02:25:39;101416.78;;;17.43;100.00
81299;BME280;70766;53.170;18.160;2023-06-22T02:28:07;101424.41;;;17.41;100.00
81299;BME280;70766;53.170;18.160;2023-06-22T02:30:35;101432.92;;;17.41;100.00
81299;BME280;70766;53.170;18.160;2023-06-22T02:33:03;101436.56;;;17.41;100.00
81299;BME280;70766;53.170;18.160;2023-06-22T02:35:31;101440.96;;;17.41;100.00
81299;BME280;70766;53.170;18.160;2023-06-22T02:38:01;101439.73;;;17.41;100.00
81299;BME280;70766;53.170;18.160;2023-06-22T02:40:30;101441.00;;;17.43;100.00
81299;BME280;70766;53.170;18.160;2023-06-22T02:42:58;101441.02;;;17.46;100.00
81299;BME280;70766;53.170;18.160;2023-06-22T02:45:30;101447.84;;;17.49;100.00
81299;BME280;70766;53.170;18.160;2023-06-22T02:47:58;101444.82;;;17.52;100.00
81299;BME280;70766;53.170;18.160;2023-06-22T02:50:27;101442.57;;;17.55;100.00
81299;BME280;70766;53.170;18.160;2023-06-22T02:52:56;101443.52;;;17.57;100.00
81299;BME280;70766;53.170;18.160;2023-06-22T02:55:24;101447.33;;;17.59;100.00
81299;BME280;70766;53.170;18.160;2023-06-22T02:57:56;101447.27;;;17.61;100.00
81299;BME280;70766;53.170;18.160;2023-06-22T03:00:25;101449.30;;;17.63;100.00
81299;BME280;70766;53.170;18.160;2023-06-22T03:02:59;101447.20;;;17.65;100.00
81299;BME280;70766;53.170;18.160;2023-06-22T03:05:27;101451.94;;;17.67;100.00
81299;BME280;70766;53.170;18.160;2023-06-22T03:07:56;101457.08;;;17.69;100.00
81299;BME280;70766;53.170;18.160;2023-06-22T03:10:24;101453.64;;;17.73;100.00
81299;BME280;70766;53.170;18.160;2023-06-22T03:12:52;101455.81;;;17.73;100.00
81299;BME280;70766;53.170;18.160;2023-06-22T03:15:20;101454.88;;;17.77;100.00
81299;BME280;70766;53.170;18.160;2023-06-22T03:17:51;101455.51;;;17.80;100.00
81299;BME280;70766;53.170;18.160;2023-06-22T03:20:19;101460.89;;;17.84;100.00
81299;BME280;70766;53.170;18.160;2023-06-22T03:22:48;101468.58;;;17.88;100.00
81299;BME280;70766;53.170;18.160;2023-06-22T03:25:16;101469.97;;;17.92;100.00
81299;BME280;70766;53.170;18.160;2023-06-22T03:27:46;101477.52;;;17.96;100.00
81299;BME280;70766;53.170;18.160;2023-06-22T03:30:16;101481.31;;;18.00;100.00
81299;BME280;70766;53.170;18.160;2023-06-22T03:32:46;101479.64;;;18.06;100.00
81299;BME280;70766;53.170;18.160;2023-06-22T03:35:15;101475.98;;;18.05;100.00
81299;BME280;70766;53.170;18.160;2023-06-22T03:37:43;101479.05;;;18.02;100.00
81299;BME280;70766;53.170;18.160;2023-06-22T03:40:11;101477.52;;;18.11;100.00
81299;BME280;70766;53.170;18.160;2023-06-22T03:42:40;101482.46;;;18.23;100.00
81299;BME280;70766;53.170;18.160;2023-06-22T03:45:10;101479.73;;;18.26;100.00
81299;BME280;70766;53.170;18.160;2023-06-22T03:47:38;101483.88;;;18.28;100.00
81299;BME280;70766;53.170;18.160;2023-06-22T03:50:06;101489.19;;;18.33;100.00
81299;BME280;70766;53.170;18.160;2023-06-22T03:52:34;101499.13;;;18.36;100.00
81299;BME280;70766;53.170;18.160;2023-06-22T03:55:03;101499.45;;;18.42;100.00
81299;BME280;70766;53.170;18.160;2023-06-22T03:57:31;101504.09;;;18.48;100.00
81299;BME280;70766;53.170;18.160;2023-06-22T03:59:59;101502.58;;;18.54;100.00
81299;BME280;70766;53.170;18.160;2023-06-22T04:02:27;101503.52;;;18.58;100.00
81299;BME280;70766;53.170;18.160;2023-06-22T04:04:55;101500.09;;;18.63;100.00
81299;BME280;70766;53.170;18.160;2023-06-22T04:07:24;101492.68;;;18.67;100.00
81299;BME280;70766;53.170;18.160;2023-06-22T04:09:52;101496.46;;;18.72;100.00
81299;BME280;70766;53.170;18.160;2023-06-22T04:12:20;101494.00;;;18.64;100.00
81299;BME280;70766;53.170;18.160;2023-06-22T04:14:48;101499.74;;;18.62;100.00
81299;BME280;70766;53.170;18.160;2023-06-22T04:17:16;101496.75;;;18.76;100.00
81299;BME280;70766;53.170;18.160;2023-06-22T04:19:47;101496.83;;;18.93;100.00
81299;BME280;70766;53.170;18.160;2023-06-22T04:22:15;101492.08;;;19.54;100.00
81299;BME280;70766;53.170;18.160;2023-06-22T04:24:44;101494.98;;;20.47;100.00
81299;BME280;70766;53.170;18.160;2023-06-22T04:27:12;101499.03;;;21.45;95.97
81299;BME280;70766;53.170;18.160;2023-06-22T04:29:40;101501.59;;;22.07;91.68
81299;BME280;70766;53.170;18.160;2023-06-22T04:32:17;101498.58;;;23.02;92.76
81299;BME280;70766;53.170;18.160;2023-06-22T04:34:45;101495.15;;;23.47;79.81
81299;BME280;70766;53.170;18.160;2023-06-22T04:37:13;101490.39;;;23.77;73.11
81299;BME280;70766;53.170;18.160;2023-06-22T04:39:43;101489.77;;;24.25;66.64
81299;BME280;70766;53.170;18.160;2023-06-22T04:42:12;101486.41;;;24.50;63.94
81299;BME280;70766;53.170;18.160;2023-06-22T04:44:40;101487.25;;;25.18;64.75
81299;BME280;70766;53.170;18.160;2023-06-22T04:47:09;101485.61;;;25.41;60.01
81299;BME280;70766;53.170;18.160;2023-06-22T04:49:37;101482.74;;;25.83;57.52
81299;BME280;70766;53.170;18.160;2023-06-22T04:52:10;101490.15;;;25.91;56.17
81299;BME280;70766;53.170;18.160;2023-06-22T04:54:40;101492.66;;;25.90;55.42
81299;BME280;70766;53.170;18.160;2023-06-22T04:57:16;101485.55;;;25.99;54.47
81299;BME280;70766;53.170;18.160;2023-06-22T04:59:44;101494.35;;;25.81;53.88
81299;BME280;70766;53.170;18.160;2023-06-22T05:02:12;101496.63;;;26.07;54.75
81299;BME280;70766;53.170;18.160;2023-06-22T05:04:40;101496.69;;;26.23;52.83
81299;BME280;70766;53.170;18.160;2023-06-22T05:07:09;101501.60;;;26.55;52.46
81299;BME280;70766;53.170;18.160;2023-06-22T05:09:37;101498.24;;;26.86;52.09
81299;BME280;70766;53.170;18.160;2023-06-22T05:12:06;101493.08;;;26.97;50.56
81299;BME280;70766;53.170;18.160;2023-06-22T05:14:38;101500.08;;;25.85;52.83
81299;BME280;70766;53.170;18.160;2023-06-22T05:17:06;101502.64;;;26.29;52.29
81299;BME280;70766;53.170;18.160;2023-06-22T05:19:43;101509.35;;;26.44;51.47
81299;BME280;70766;53.170;18.160;2023-06-22T05:22:16;101514.02;;;25.87;52.70
81299;BME280;70766;53.170;18.160;2023-06-22T05:24:46;101518.58;;;26.29;51.58
81299;BME280;70766;53.170;18.160;2023-06-22T05:27:14;101518.35;;;26.43;51.20
81299;BME280;70766;53.170;18.160;2023-06-22T05:29:43;101519.80;;;26.80;50.65
81299;BME280;70766;53.170;18.160;2023-06-22T05:32:11;101513.39;;;27.43;49.73
81299;BME280;70766;53.170;18.160;2023-06-22T05:34:39;101513.05;;;27.32;48.93
81299;BME280;70766;53.170;18.160;2023-06-22T05:37:07;101515.67;;;27.62;48.71
81299;BME280;70766;53.170;18.160;2023-06-22T05:39:37;101522.73;;;27.62;48.05
81299;BME280;70766;53.170;18.160;2023-06-22T05:42:06;101521.08;;;27.43;48.78
81299;BME280;70766;53.170;18.160;2023-06-22T05:44:37;101515.20;;;27.93;47.41
81299;BME280;70766;53.170;18.160;2023-06-22T05:47:07;101525.02;;;27.53;47.50
81299;BME280;70766;53.170;18.160;2023-06-22T05:49:35;101531.23;;;27.73;46.78
81299;BME280;70766;53.170;18.160;2023-06-22T05:52:03;101528.96;;;27.51;47.31
81299;BME280;70766;53.170;18.160;2023-06-22T05:54:32;101517.16;;;27.54;47.10
81299;BME280;70766;53.170;18.160;2023-06-22T05:57:00;101512.52;;;28.04;46.59
81299;BME280;70766;53.170;18.160;2023-06-22T05:59:28;101512.33;;;28.30;46.48
81299;BME280;70766;53.170;18.160;2023-06-22T06:01:56;101516.00;;;28.50;45.67
81299;BME280;70766;53.170;18.160;2023-06-22T06:04:24;101512.58;;;27.99;46.23
81299;BME280;70766;53.170;18.160;2023-06-22T06:06:55;101509.65;;;28.29;45.83
81299;BME280;70766;53.170;18.160;2023-06-22T06:09:24;101511.56;;;28.14;45.36
81299;BME280;70766;53.170;18.160;2023-06-22T06:11:52;101512.99;;;27.80;46.20
81299;BME280;70766;53.170;18.160;2023-06-22T06:14:20;101513.80;;;28.08;45.32
81299;BME280;70766;53.170;18.160;2023-06-22T06:16:49;101517.09;;;27.64;46.09
81299;BME280;70766;53.170;18.160;2023-06-22T06:19:17;101513.05;;;27.78;46.09
81299;BME280;70766;53.170;18.160;2023-06-22T06:21:45;101507.39;;;27.63;45.89
81299;BME280;70766;53.170;18.160;2023-06-22T06:24:14;101506.89;;;27.35;46.52
81299;BME280;70766;53.170;18.160;2023-06-22T06:26:42;101505.46;;;27.71;44.95
81299;BME280;70766;53.170;18.160;2023-06-22T06:29:10;101507.38;;;26.94;47.20
81299;BME280;70766;53.170;18.160;2023-06-22T06:31:38;101514.61;;;26.26;48.38
81299;BME280;70766;53.170;18.160;2023-06-22T06:34:07;101526.67;;;26.07;49.42
81299;BME280;70766;53.170;18.160;2023-06-22T06:36:35;101526.83;;;26.76;47.87
81299;BME280;70766;53.170;18.160;2023-06-22T06:39:03;101522.09;;;27.38;46.90
81299;BME280;70766;53.170;18.160;2023-06-22T06:41:31;101521.59;;;27.83;45.87
81299;BME280;70766;53.170;18.160;2023-06-22T06:44:01;101520.38;;;28.22;44.21
81299;BME280;70766;53.170;18.160;2023-06-22T06:46:29;101514.92;;;28.30;43.91
81299;BME280;70766;53.170;18.160;2023-06-22T06:48:57;101513.09;;;28.33;43.13
81299;BME280;70766;53.170;18.160;2023-06-22T06:51:25;101511.81;;;28.50;43.06
81299;BME280;70766;53.170;18.160;2023-06-22T06:53:53;101518.35;;;27.58;43.08
81299;BME280;70766;53.170;18.160;2023-06-22T06:56:22;101512.21;;;27.78;43.10
81299;BME280;70766;53.170;18.160;2023-06-22T06:58:51;101507.44;;;27.30;43.95
81299;BME280;70766;53.170;18.160;2023-06-22T07:01:19;101506.80;;;27.14;43.81
81299;BME280;70766;53.170;18.160;2023-06-22T07:03:49;101508.33;;;26.90;44.41
81299;BME280;70766;53.170;18.160;2023-06-22T07:06:17;101505.42;;;26.69;45.18
81299;BME280;70766;53.170;18.160;2023-06-22T07:08:46;101516.78;;;26.65;45.31
81299;BME280;70766;53.170;18.160;2023-06-22T07:11:14;101509.73;;;27.03;43.98
81299;BME280;70766;53.170;18.160;2023-06-22T07:13:42;101504.95;;;26.62;45.50
81299;BME280;70766;53.170;18.160;2023-06-22T07:16:10;101511.95;;;26.73;45.55
81299;BME280;70766;53.170;18.160;2023-06-22T07:18:39;101507.32;;;27.45;44.76
81299;BME280;70766;53.170;18.160;2023-06-22T07:21:07;101504.06;;;27.90;43.52
81299;BME280;70766;53.170;18.160;2023-06-22T07:23:36;101512.83;;;27.78;43.76
81299;BME280;70766;53.170;18.160;2023-06-22T07:26:04;101520.84;;;27.56;43.74
81299;BME280;70766;53.170;18.160;2023-06-22T07:28:34;101520.40;;;27.70;44.00
81299;BME280;70766;53.170;18.160;2023-06-22T07:31:06;101523.14;;;28.30;42.86
81299;BME280;70766;53.170;18.160;2023-06-22T07:33:34;101519.80;;;28.52;42.18
81299;BME280;70766;53.170;18.160;2023-06-22T07:36:02;101523.41;;;28.62;41.46
81299;BME280;70766;53.170;18.160;2023-06-22T07:38:35;101525.61;;;28.77;41.10
81299;BME280;70766;53.170;18.160;2023-06-22T07:41:04;101527.84;;;28.43;40.80
81299;BME280;70766;53.170;18.160;2023-06-22T07:43:33;101526.09;;;28.17;41.98
81299;BME280;70766;53.170;18.160;2023-06-22T07:46:05;101526.11;;;28.53;42.13
81299;BME280;70766;53.170;18.160;2023-06-22T07:48:36;101530.52;;;28.59;40.68
81299;BME280;70766;53.170;18.160;2023-06-22T07:51:05;101534.37;;;28.17;41.28
81299;BME280;70766;53.170;18.160;2023-06-22T07:53:34;101536.93;;;28.15;41.75
81299;BME280;70766;53.170;18.160;2023-06-22T07:56:04;101540.49;;;28.27;41.23
81299;BME280;70766;53.170;18.160;2023-06-22T07:58:35;101532.80;;;27.79;41.50
81299;BME280;70766;53.170;18.160;2023-06-22T08:01:03;101531.34;;;27.40;42.06
81299;BME280;70766;53.170;18.160;2023-06-22T08:03:32;101529.27;;;26.85;43.03
81299;BME280;70766;53.170;18.160;2023-06-22T08:06:00;101529.95;;;27.01;43.04
81299;BME280;70766;53.170;18.160;2023-06-22T08:08:29;101530.69;;;27.33;42.96
81299;BME280;70766;53.170;18.160;2023-06-22T08:10:57;101532.27;;;27.71;42.09
81299;BME280;70766;53.170;18.160;2023-06-22T08:13:25;101538.27;;;28.18;41.00
81299;BME280;70766;53.170;18.160;2023-06-22T08:15:53;101540.71;;;28.48;40.70
81299;BME280;70766;53.170;18.160;2023-06-22T08:18:22;101541.63;;;28.26;41.02
81299;BME280;70766;53.170;18.160;2023-06-22T08:20:50;101539.91;;;28.08;40.74
81299;BME280;70766;53.170;18.160;2023-06-22T08:23:18;101538.12;;;27.46;41.28
81299;BME280;70766;53.170;18.160;2023-06-22T08:25:46;101538.61;;;27.81;40.97
81299;BME280;70766;53.170;18.160;2023-06-22T08:28:16;101546.35;;;27.88;40.41
81299;BME280;70766;53.170;18.160;2023-06-22T08:30:44;101547.24;;;27.43;40.74
81299;BME280;70766;53.170;18.160;2023-06-22T08:33:12;101541.10;;;27.30;40.08
81299;BME280;70766;53.170;18.160;2023-06-22T08:35:55;101539.38;;;27.79;39.64
81299;BME280;70766;53.170;18.160;2023-06-22T08:38:23;101543.08;;;28.11;39.99
81299;BME280;70766;53.170;18.160;2023-06-22T08:40:52;101539.64;;;28.04;40.10
81299;BME280;70766;53.170;18.160;2023-06-22T08:43:20;101537.58;;;28.76;39.28
81299;BME280;70766;53.170;18.160;2023-06-22T08:45:48;101542.85;;;29.15;37.49
81299;BME280;70766;53.170;18.160;2023-06-22T08:48:17;101543.81;;;28.71;37.48
81299;BME280;70766;53.170;18.160;2023-06-22T08:50:45;101538.59;;;28.40;38.49
81299;BME280;70766;53.170;18.160;2023-06-22T08:53:13;101538.26;;;28.76;38.27
81299;BME280;70766;53.170;18.160;2023-06-22T08:55:41;101537.55;;;28.16;38.79
81299;BME280;70766;53.170;18.160;2023-06-22T08:58:09;101531.19;;;28.64;37.69
81299;BME280;70766;53.170;18.160;2023-06-22T09:00:38;101527.47;;;28.61;37.83
81299;BME280;70766;53.170;18.160;2023-06-22T09:03:06;101527.05;;;28.38;37.86
81299;BME280;70766;53.170;18.160;2023-06-22T09:05:34;101533.04;;;28.60;37.93
81299;BME280;70766;53.170;18.160;2023-06-22T09:08:03;101537.15;;;28.62;37.97
81299;BME280;70766;53.170;18.160;2023-06-22T09:10:31;101531.95;;;28.97;37.41
81299;BME280;70766;53.170;18.160;2023-06-22T09:13:00;101532.86;;;29.20;37.09
81299;BME280;70766;53.170;18.160;2023-06-22T09:15:29;101532.39;;;29.00;37.33
81299;BME280;70766;53.170;18.160;2023-06-22T09:17:57;101532.05;;;29.07;36.36
81299;BME280;70766;53.170;18.160;2023-06-22T09:20:26;101522.70;;;29.16;36.10
81299;BME280;70766;53.170;18.160;2023-06-22T09:22:55;101517.99;;;29.38;36.35
81299;BME280;70766;53.170;18.160;2023-06-22T09:25:23;101511.55;;;29.71;35.38
81299;BME280;70766;53.170;18.160;2023-06-22T09:27:51;101511.23;;;29.52;35.56
81299;BME280;70766;53.170;18.160;2023-06-22T09:30:19;101512.38;;;28.76;35.04
81299;BME280;70766;53.170;18.160;2023-06-22T09:32:47;101505.77;;;28.40;35.58
81299;BME280;70766;53.170;18.160;2023-06-22T09:35:16;101498.94;;;28.95;35.19
81299;BME280;70766;53.170;18.160;2023-06-22T09:37:44;101495.60;;;28.84;35.46
81299;BME280;70766;53.170;18.160;2023-06-22T09:40:13;101492.70;;;28.55;36.08
81299;BME280;70766;53.170;18.160;2023-06-22T09:42:43;101492.39;;;28.69;35.69
81299;BME280;70766;53.170;18.160;2023-06-22T09:45:11;101497.23;;;28.09;36.39
81299;BME280;70766;53.170;18.160;2023-06-22T09:47:39;101496.83;;;28.05;37.15
81299;BME280;70766;53.170;18.160;2023-06-22T09:50:08;101498.11;;;28.35;36.82
81299;BME280;70766;53.170;18.160;2023-06-22T09:52:37;101495.42;;;28.96;36.79
81299;BME280;70766;53.170;18.160;2023-06-22T09:55:08;101496.75;;;29.61;36.11
81299;BME280;70766;53.170;18.160;2023-06-22T09:57:36;101501.62;;;29.66;35.62
81299;BME280;70766;53.170;18.160;2023-06-22T10:00:07;101498.50;;;29.25;35.15
81299;BME280;70766;53.170;18.160;2023-06-22T10:02:42;101495.89;;;29.89;34.50
81299;BME280;70766;53.170;18.160;2023-06-22T10:05:10;101498.80;;;30.30;32.85
81299;BME280;70766;53.170;18.160;2023-06-22T10:07:39;101498.51;;;30.24;32.09
81299;BME280;70766;53.170;18.160;2023-06-22T10:10:11;101505.05;;;29.61;33.29
81299;BME280;70766;53.170;18.160;2023-06-22T10:12:47;101506.15;;;29.72;32.45
81299;BME280;70766;53.170;18.160;2023-06-22T10:15:16;101502.55;;;29.06;33.95
81299;BME280;70766;53.170;18.160;2023-06-22T10:17:45;101496.39;;;29.40;34.04
81299;BME280;70766;53.170;18.160;2023-06-22T10:20:13;101495.73;;;29.33;34.00
81299;BME280;70766;53.170;18.160;2023-06-22T10:22:44;101494.47;;;29.32;33.76
81299;BME280;70766;53.170;18.160;2023-06-22T10:25:12;101489.31;;;29.08;33.73
81299;BME280;70766;53.170;18.160;2023-06-22T10:27:41;101487.11;;;29.22;33.50
81299;BME280;70766;53.170;18.160;2023-06-22T10:30:10;101488.30;;;29.69;33.01
81299;BME280;70766;53.170;18.160;2023-06-22T10:32:42;101487.61;;;29.49;33.73
81299;BME280;70766;53.170;18.160;2023-06-22T10:35:11;101482.70;;;29.22;34.87
81299;BME280;70766;53.170;18.160;2023-06-22T10:37:46;101482.20;;;30.00;33.81
81299;BME280;70766;53.170;18.160;2023-06-22T10:40:15;101478.46;;;30.38;33.23
81299;BME280;70766;53.170;18.160;2023-06-22T10:42:44;101481.81;;;30.48;32.75
81299;BME280;70766;53.170;18.160;2023-06-22T10:45:12;101482.04;;;30.47;32.75
81299;BME280;70766;53.170;18.160;2023-06-22T10:47:41;101483.23;;;30.56;32.19
81299;BME280;70766;53.170;18.160;2023-06-22T10:50:12;101474.76;;;29.72;32.65
81299;BME280;70766;53.170;18.160;2023-06-22T10:52:41;101475.41;;;28.71;34.77
81299;BME280;70766;53.170;18.160;2023-06-22T10:55:10;101478.16;;;28.58;35.09
81299;BME280;70766;53.170;18.160;2023-06-22T10:57:38;101474.91;;;28.72;34.49
81299;BME280;70766;53.170;18.160;2023-06-22T11:00:12;101472.15;;;28.89;34.01
81299;BME280;70766;53.170;18.160;2023-06-22T11:02:41;101468.31;;;29.51;33.01
81299;BME280;70766;53.170;18.160;2023-06-22T11:05:10;101461.65;;;30.09;32.18
81299;BME280;70766;53.170;18.160;2023-06-22T11:07:42;101466.77;;;29.69;32.55
81299;BME280;70766;53.170;18.160;2023-06-22T11:10:16;101465.35;;;28.93;34.29
81299;BME280;70766;53.170;18.160;2023-06-22T11:12:45;101471.39;;;29.36;34.06
81299;BME280;70766;53.170;18.160;2023-06-22T11:15:13;101467.42;;;29.65;33.27
81299;BME280;70766;53.170;18.160;2023-06-22T11:17:41;101463.70;;;29.98;32.93
81299;BME280;70766;53.170;18.160;2023-06-22T11:20:10;101469.06;;;30.33;33.56
81299;BME280;70766;53.170;18.160;2023-06-22T11:22:40;101467.25;;;30.27;33.87
81299;BME280;70766;53.170;18.160;2023-06-22T11:25:08;101463.55;;;29.95;34.65
81299;BME280;70766;53.170;18.160;2023-06-22T11:27:37;101463.33;;;30.15;33.77
81299;BME280;70766;53.170;18.160;2023-06-22T11:30:05;101466.93;;;30.27;32.43
81299;BME280;70766;53.170;18.160;2023-06-22T11:32:34;101455.41;;;30.77;31.69
81299;BME280;70766;53.170;18.160;2023-06-22T11:35:03;101461.05;;;30.75;31.01
81299;BME280;70766;53.170;18.160;2023-06-22T11:37:31;101466.41;;;30.57;30.95
81299;BME280;70766;53.170;18.160;2023-06-22T11:39:59;101460.80;;;29.91;31.47
81299;BME280;70766;53.170;18.160;2023-06-22T11:42:34;101462.13;;;30.03;31.59
81299;BME280;70766;53.170;18.160;2023-06-22T11:45:06;101459.89;;;30.35;31.38
81299;BME280;70766;53.170;18.160;2023-06-22T11:47:34;101459.29;;;30.03;31.14
81299;BME280;70766;53.170;18.160;2023-06-22T11:50:03;101459.50;;;30.10;31.17
81299;BME280;70766;53.170;18.160;2023-06-22T11:52:31;101459.08;;;30.54;31.46
81299;BME280;70766;53.170;18.160;2023-06-22T11:54:59;101450.89;;;31.02;31.46
81299;BME280;70766;53.170;18.160;2023-06-22T11:57:27;101449.17;;;31.15;31.22
81299;BME280;70766;53.170;18.160;2023-06-22T11:59:56;101450.95;;;30.90;30.82
81299;BME280;70766;53.170;18.160;2023-06-22T12:02:24;101444.14;;;30.94;30.43
81299;BME280;70766;53.170;18.160;2023-06-22T12:04:52;101442.20;;;30.65;30.88
81299;BME280;70766;53.170;18.160;2023-06-22T12:07:23;101448.61;;;30.14;31.80
81299;BME280;70766;53.170;18.160;2023-06-22T12:09:52;101444.95;;;29.33;32.20
81299;BME280;70766;53.170;18.160;2023-06-22T12:12:20;101436.01;;;29.50;33.40
81299;BME280;70766;53.170;18.160;2023-06-22T12:14:48;101433.66;;;29.65;33.74
81299;BME280;70766;53.170;18.160;2023-06-22T12:17:16;101433.88;;;29.80;32.65
81299;BME280;70766;53.170;18.160;2023-06-22T12:19:44;101430.06;;;30.16;32.64
81299;BME280;70766;53.170;18.160;2023-06-22T12:22:12;101426.64;;;30.48;32.00
81299;BME280;70766;53.170;18.160;2023-06-22T12:24:40;101415.83;;;30.60;31.72
81299;BME280;70766;53.170;18.160;2023-06-22T12:27:08;101412.23;;;30.61;31.78
81299;BME280;70766;53.170;18.160;2023-06-22T12:29:38;101415.48;;;30.56;31.07
81299;BME280;70766;53.170;18.160;2023-06-22T12:32:06;101424.92;;;29.96;31.17
81299;BME280;70766;53.170;18.160;2023-06-22T12:34:34;101419.84;;;29.65;31.56
81299;BME280;70766;53.170;18.160;2023-06-22T12:37:02;101421.48;;;29.51;31.92
81299;BME280;70766;53.170;18.160;2023-06-22T12:39:32;101420.60;;;29.88;32.07
81299;BME280;70766;53.170;18.160;2023-06-22T12:42:00;101417.73;;;30.02;32.22
81299;BME280;70766;53.170;18.160;2023-06-22T12:44:28;101408.03;;;30.57;31.53
81299;BME280;70766;53.170;18.160;2023-06-22T12:46:56;101403.52;;;30.86;30.23
81299;BME280;70766;53.170;18.160;2023-06-22T12:49:24;101405.39;;;30.62;30.34
81299;BME280;70766;53.170;18.160;2023-06-22T12:51:53;101405.14;;;31.08;31.00